Time;durP1;ratioP1;P1;durP2;ratioP2;P2;SDS_P1;SDS_P2;PMS_P1;PMS_P2;Temp;Humidity;BMP_temperature;BMP_pressure;BME280_temperature;BME280_humidity;BME280_pressure;Samples;Min_cycle;Max_cycle;Signal;HPM_P1;HPM_P2
2023/05/22 00:00:22;;;;;;;24.90;16.00;;;;;;;41.58;36.48;101073.41;6246165;23;20413;-94
2023/05/22 00:02:49;;;;;;;32.07;16.33;;;;;;;41.71;37.02;101078.97;6246983;23;20704;-93
2023/05/22 00:05:17;;;;;;;27.57;15.50;;;;;;;41.63;37.14;101064.25;6246670;23;20378;-93
2023/05/22 00:07:44;;;;;;;25.43;17.17;;;;;;;41.56;36.98;101044.91;6246628;23;20378;-93
2023/05/22 00:10:11;;;;;;;29.73;17.27;;;;;;;41.67;36.88;101054.28;6246429;23;20879;-92
2023/05/22 00:12:37;;;;;;;31.50;17.50;;;;;;;41.53;37.15;101032.72;6246517;23;20847;-94
2023/05/22 00:15:03;;;;;;;30.73;18.83;;;;;;;41.61;36.80;101045.50;6246647;23;20385;-93
2023/05/22 00:17:32;;;;;;;31.30;19.40;;;;;;;41.46;37.23;101024.28;6246919;23;20937;-93
2023/05/22 00:20:05;;;;;;;29.90;20.37;;;;;;;41.60;37.14;101043.91;6246982;23;20488;-93
2023/05/22 00:22:34;;;;;;;25.90;20.30;;;;;;;41.38;37.23;101018.88;6246459;23;20804;-93
2023/05/22 00:25:04;;;;;;;30.20;20.37;;;;;;;41.49;37.45;101045.41;6246868;23;20506;-94
2023/05/22 00:27:30;;;;;;;34.93;20.50;;;;;;;41.40;37.12;101019.34;6246869;23;20394;-93
2023/05/22 00:29:57;;;;;;;27.93;18.70;;;;;;;41.43;37.23;101018.69;6246410;23;20410;-94
2023/05/22 00:32:26;;;;;;;30.30;20.37;;;;;;;41.42;36.99;101011.63;6246636;23;20410;-93
2023/05/22 00:34:53;;;;;;;27.67;19.20;;;;;;;41.44;37.33;101012.94;6246819;23;20411;-93
2023/05/22 00:37:19;;;;;;;28.53;19.53;;;;;;;41.51;37.40;101020.59;6245623;23;20529;-93
2023/05/22 00:39:45;;;;;;;35.73;22.20;;;;;;;41.53;37.21;101012.88;6246655;23;20922;-92
2023/05/22 00:42:12;;;;;;;42.63;21.87;;;;;;;41.40;37.06;100987.47;6247149;23;20387;-94
2023/05/22 00:44:38;;;;;;;24.27;18.70;;;;;;;41.50;37.60;100991.75;6246646;23;20844;-93
2023/05/22 00:47:04;;;;;;;29.50;22.23;;;;;;;41.44;37.28;100982.19;6246286;23;20478;-93
2023/05/22 00:49:30;;;;;;;29.90;20.77;;;;;;;41.40;37.17;100975.78;6245899;23;20386;-92
2023/05/22 00:51:56;;;;;;;31.33;20.40;;;;;;;41.36;37.42;100970.19;6245730;23;20945;-93
2023/05/22 00:54:23;;;;;;;33.67;20.70;;;;;;;41.37;37.45;100970.97;6245642;23;20770;-93
2023/05/22 00:56:49;;;;;;;35.27;20.93;;;;;;;41.60;37.56;101003.06;6245561;23;20470;-93
2023/05/22 00:59:16;;;;;;;26.77;18.47;;;;;;;41.37;37.52;100985.38;6246424;23;20516;-93
2023/05/22 01:01:43;;;;;;;27.37;19.63;;;;;;;41.43;37.82;100996.91;6245968;23;20387;-93
2023/05/22 01:04:11;;;;;;;27.13;17.40;;;;;;;41.53;37.17;101008.22;6246626;23;20418;-94
2023/05/22 01:06:38;;;;;;;26.07;16.97;;;;;;;41.31;37.37;100973.88;6245708;23;20390;-92
2023/05/22 01:09:04;;;;;;;29.87;19.70;;;;;;;41.40;37.96;100975.78;6246208;23;20389;-93
2023/05/22 01:11:48;;;;;;;27.97;19.80;;;;;;;41.52;37.67;100987.56;6245885;23;20398;-93
2023/05/22 01:14:14;;;;;;;31.93;21.03;;;;;;;41.40;37.57;100978.50;6246249;23;20410;-93
2023/05/22 01:17:27;;;;;;;40.33;20.60;;;;;;;41.29;37.98;100967.16;6246267;23;20870;-93
2023/05/22 01:20:17;;;;;;;36.83;23.17;;;;;;;41.37;38.04;100976.41;6206022;23;20485;-93
2023/05/22 01:23:21;;;;;;;26.87;18.47;;;;;;;41.38;37.86;100983.50;6246027;23;20375;-93
2023/05/22 01:26:23;;;;;;;26.90;16.17;;;;;;;41.30;38.04;100987.78;6246083;23;20393;-92
2023/05/22 01:29:19;;;;;;;25.00;16.50;;;;;;;41.18;38.03;100958.53;6247078;23;20451;-95
2023/05/22 01:31:48;;;;;;;22.10;16.40;;;;;;;41.12;37.83;100953.59;6247222;23;20417;-95
2023/05/22 01:34:17;;;;;;;18.60;14.10;;;;;;;41.20;37.93;100969.91;6246290;23;20386;-95
2023/05/22 01:36:45;;;;;;;26.20;16.10;;;;;;;41.20;38.13;100971.84;6246314;23;20448;-93
2023/05/22 01:39:13;;;;;;;20.30;15.07;;;;;;;41.03;38.26;100938.13;6246598;23;20422;-93
2023/05/22 01:41:40;;;;;;;20.87;13.50;;;;;;;41.03;37.83;100945.50;6245568;23;20402;-93
2023/05/22 01:44:06;;;;;;;21.83;12.10;;;;;;;41.00;38.09;100941.47;6245921;23;20432;-94
2023/05/22 01:46:32;;;;;;;25.70;15.00;;;;;;;41.08;37.69;100945.31;6245955;23;20950;-93
2023/05/22 01:48:58;;;;;;;19.43;13.23;;;;;;;41.08;38.15;100950.75;6245749;23;20406;-94
2023/05/22 01:51:42;;;;;;;25.40;13.97;;;;;;;41.30;37.83;100987.78;6244754;23;20775;-94
2023/05/22 01:54:23;;;;;;;25.80;15.50;;;;;;;41.05;38.04;100949.47;6245861;23;20381;-94
2023/05/22 01:57:15;;;;;;;19.33;12.00;;;;;;;41.21;38.09;100970.72;6245095;23;20386;-93
2023/05/22 02:00:06;;;;;;;18.17;12.63;;;;;;;41.34;37.96;100994.22;6245737;23;20398;-94
2023/05/22 02:02:35;;;;;;;18.47;12.60;;;;;;;41.33;37.70;100987.97;6239694;23;20397;-93
2023/05/22 02:05:03;;;;;;;22.67;14.17;;;;;;;41.18;38.02;100963.97;6246010;23;20390;-94
2023/05/22 02:07:32;;;;;;;23.73;12.90;;;;;;;41.33;37.74;100993.44;6246034;23;20410;-93
2023/05/22 02:09:59;;;;;;;19.23;12.80;;;;;;;41.23;37.78;100982.06;6245844;23;20386;-93
2023/05/22 02:12:26;;;;;;;21.63;11.10;;;;;;;41.21;37.67;100976.94;6245503;23;20415;-93
2023/05/22 02:14:52;;;;;;;20.30;11.90;;;;;;;41.08;37.89;100958.91;6245180;23;20390;-94
2023/05/22 02:17:20;;;;;;;19.63;10.67;;;;;;;41.12;37.96;100965.28;6245463;23;20430;-93
2023/05/22 02:19:46;;;;;;;19.10;10.47;;;;;;;41.16;38.25;100973.63;6247017;23;20382;-94
2023/05/22 02:22:12;;;;;;;18.30;10.43;;;;;;;41.23;37.63;100982.84;6247252;23;20471;-93
2023/05/22 02:24:47;;;;;;;23.70;10.27;;;;;;;41.12;37.96;100972.66;6247628;23;20413;-94
2023/05/22 02:27:13;;;;;;;17.10;12.80;;;;;;;41.36;37.80;101005.56;6248137;23;20501;-94
2023/05/22 02:29:39;;;;;;;21.97;12.77;;;;;;;41.27;37.92;100997.41;6246904;23;22126;-93
2023/05/22 02:32:06;;;;;;;14.37;11.23;;;;;;;41.12;37.78;100969.94;6247038;23;20382;-93
2023/05/22 02:34:32;;;;;;;19.23;10.93;;;;;;;41.10;37.96;100973.00;6246325;23;20444;-93
2023/05/22 02:36:59;;;;;;;16.00;9.43;;;;;;;41.11;38.13;100965.63;6246668;23;20386;-93
2023/05/22 02:39:26;;;;;;;20.00;11.23;;;;;;;41.12;37.83;100978.91;6247833;23;20386;-94
2023/05/22 02:41:52;;;;;;;17.30;10.97;;;;;;;41.16;38.50;100996.19;6247566;23;20386;-94
2023/05/22 02:44:18;;;;;;;22.20;9.50;;;;;;;41.11;37.96;100990.91;6246856;23;20388;-93
2023/05/22 02:46:44;;;;;;;17.00;12.90;;;;;;;41.15;38.06;100994.59;6246745;23;20470;-93
2023/05/22 02:49:10;;;;;;;14.87;11.17;;;;;;;41.21;37.59;101003.38;6247359;23;20989;-93
2023/05/22 02:51:36;;;;;;;24.93;9.87;;;;;;;41.16;37.98;100990.72;6246414;23;20450;-93
2023/05/22 02:54:02;;;;;;;18.53;11.07;;;;;;;41.06;37.93;100970.09;6246756;23;20386;-94
2023/05/22 02:56:28;;;;;;;15.70;9.50;;;;;;;41.07;37.87;100968.22;6247110;23;20398;-93
2023/05/22 02:58:55;;;;;;;19.90;11.43;;;;;;;41.22;37.87;100983.19;6246662;23;20430;-93
2023/05/22 03:01:22;;;;;;;15.97;9.03;;;;;;;41.11;37.94;100971.06;6247548;23;20473;-93
2023/05/22 03:03:48;;;;;;;17.53;9.80;;;;;;;41.01;38.11;100948.53;6247752;23;20378;-93
2023/05/22 03:06:14;;;;;;;21.30;9.53;;;;;;;41.09;38.20;100955.06;6247215;23;20386;-93
2023/05/22 03:08:42;;;;;;;14.60;9.10;;;;;;;41.13;37.86;100958.75;6247475;23;20428;-93
2023/05/22 03:11:09;;;;;;;20.70;9.47;;;;;;;41.20;38.24;100969.91;6247329;23;20867;-93
2023/05/22 03:13:35;;;;;;;15.70;9.50;;;;;;;41.19;38.07;100959.34;6247017;23;20412;-93
2023/05/22 03:16:01;;;;;;;14.03;8.17;;;;;;;41.36;38.15;100986.50;6246612;23;20417;-93
2023/05/22 03:18:27;;;;;;;17.67;9.27;;;;;;;41.08;38.25;100958.91;6246356;23;20433;-93
2023/05/22 03:20:53;;;;;;;18.87;10.67;;;;;;;41.08;38.43;100948.81;6246308;23;20925;-93
2023/05/22 03:23:20;;;;;;;17.70;9.87;;;;;;;41.11;38.30;100950.09;6247277;23;20410;-93
2023/05/22 03:25:50;;;;;;;23.63;11.00;;;;;;;41.10;38.28;100961.31;6246578;23;20758;-93
2023/05/22 03:28:16;;;;;;;18.10;9.00;;;;;;;41.21;38.42;100974.22;6247557;23;20406;-96
2023/05/22 03:30:42;;;;;;;16.10;10.37;;;;;;;41.11;38.19;100963.69;6222103;23;20793;-95
2023/05/22 03:33:08;;;;;;;21.90;9.90;;;;;;;41.28;37.95;100990.84;6247534;23;20390;-95
2023/05/22 03:35:35;;;;;;;17.00;9.67;;;;;;;41.28;38.06;100984.59;6223012;23;20406;-95
2023/05/22 03:38:01;;;;;;;18.27;9.97;;;;;;;41.25;38.23;100986.06;6223166;23;20473;-95
2023/05/22 03:40:27;;;;;;;17.97;9.10;;;;;;;41.24;37.82;100980.94;6247134;23;20410;-93
2023/05/22 03:42:53;;;;;;;16.97;8.43;;;;;;;41.12;38.07;100968.00;6247177;23;20383;-93
2023/05/22 03:45:19;;;;;;;15.70;7.60;;;;;;;41.18;38.12;100974.88;6246293;23;20392;-93
2023/05/22 03:47:45;;;;;;;17.67;8.47;;;;;;;41.07;38.09;100966.28;6246268;23;20383;-93
2023/05/22 03:50:11;;;;;;;16.87;8.00;;;;;;;41.11;37.72;100963.69;6245980;23;20441;-93
2023/05/22 03:52:37;;;;;;;13.90;8.33;;;;;;;41.13;37.86;100977.78;6245988;23;20442;-92
2023/05/22 03:55:04;;;;;;;20.00;8.00;;;;;;;41.04;37.67;100955.25;6246108;23;20396;-93
2023/05/22 03:57:30;;;;;;;27.57;8.80;;;;;;;41.14;37.90;100968.50;6246241;23;20818;-94
2023/05/22 04:00:01;;;;;;;17.67;8.00;;;;;;;41.05;37.65;100949.47;6247228;23;20452;-93
2023/05/22 04:02:28;;;;;;;16.63;8.77;;;;;;;41.10;38.12;100962.09;6247138;23;20421;-93
2023/05/22 04:04:54;;;;;;;12.90;7.87;;;;;;;41.13;37.96;100976.97;6246701;23;20410;-94
2023/05/22 04:07:20;;;;;;;13.13;8.43;;;;;;;41.10;37.95;100970.25;6245824;23;20378;-92
2023/05/22 04:09:46;;;;;;;16.80;8.13;;;;;;;40.99;38.06;100950.78;6246213;23;20391;-92
2023/05/22 04:12:12;;;;;;;17.30;8.37;;;;;;;41.09;38.03;100965.94;6245451;23;20425;-94
2023/05/22 04:14:38;;;;;;;18.20;8.17;;;;;;;41.13;37.92;100972.34;6245996;23;20473;-94
2023/05/22 04:17:04;;;;;;;16.70;8.93;;;;;;;41.03;38.09;100956.38;6245272;23;20382;-94
2023/05/22 04:19:30;;;;;;;13.50;7.80;;;;;;;41.21;38.06;100990.56;6248117;22;20389;-93
2023/05/22 04:21:58;;;;;;;15.77;7.57;;;;;;;41.08;37.74;100959.72;6245604;23;20465;-93
2023/05/22 04:24:24;;;;;;;15.40;10.13;;;;;;;41.03;38.00;100950.94;6246347;23;20409;-94
2023/05/22 04:26:50;;;;;;;16.83;8.30;;;;;;;41.12;37.85;100968.00;6245389;23;20444;-94
2023/05/22 04:29:16;;;;;;;26.90;21.40;;;;;;;41.09;38.01;100960.50;6246401;23;20382;-93
2023/05/22 04:31:43;;;;;;;23.33;21.87;;;;;;;41.03;38.00;100953.66;6245955;23;20393;-95
2023/05/22 04:34:14;;;;;;;30.73;17.53;;;;;;;40.99;37.86;100949.97;6246963;23;20394;-95
2023/05/22 04:36:40;;;;;;;24.27;17.40;;;;;;;41.13;38.00;100975.06;6245816;23;20393;-93
2023/05/22 04:39:07;;;;;;;17.97;13.67;;;;;;;41.04;37.87;100960.69;6246138;23;20809;-93
2023/05/22 04:41:33;;;;;;;19.13;12.07;;;;;;;41.01;37.99;100955.91;6245165;23;20390;-92
2023/05/22 04:43:59;;;;;;;18.50;12.63;;;;;;;41.05;37.54;100959.56;6245062;23;20474;-92
2023/05/22 04:46:27;;;;;;;17.10;11.73;;;;;;;41.05;37.95;100962.28;6245384;23;20386;-94
2023/05/22 04:48:53;;;;;;;18.23;13.97;;;;;;;41.12;38.00;100978.91;6245838;23;20427;-92
2023/05/22 04:51:20;;;;;;;23.40;13.20;;;;;;;41.15;38.11;100980.19;6250070;22;20469;-93
2023/05/22 04:53:48;;;;;;;22.47;13.73;;;;;;;41.05;38.02;100968.50;6250991;22;20698;-93
2023/05/22 04:56:14;;;;;;;20.67;12.03;;;;;;;41.09;37.95;100979.56;6250143;22;20378;-93
2023/05/22 04:58:40;;;;;;;18.60;12.60;;;;;;;41.12;37.50;100980.81;6249349;22;20439;-93
2023/05/22 05:01:06;;;;;;;21.60;13.20;;;;;;;41.01;37.78;100961.34;6249712;22;20862;-96
2023/05/22 05:03:33;;;;;;;17.93;12.30;;;;;;;41.10;37.72;100978.44;6248603;22;20854;-95
2023/05/22 05:05:59;;;;;;;20.90;12.50;;;;;;;41.05;38.15;100981.31;6250659;22;20846;-93
2023/05/22 05:08:25;;;;;;;29.93;13.37;;;;;;;41.15;38.16;100986.41;6250271;22;20380;-94
2023/05/22 05:10:51;;;;;;;17.60;12.70;;;;;;;41.10;37.89;100983.88;6250562;22;20382;-93
2023/05/22 05:13:17;;;;;;;29.43;16.80;;;;;;;40.92;37.71;100961.34;6249930;22;20402;-93
2023/05/22 05:15:43;;;;;;;22.80;16.37;;;;;;;41.18;37.91;101001.28;6250510;22;20461;-93
2023/05/22 05:18:11;;;;;;;20.77;15.80;;;;;;;41.05;37.99;100998.44;6250286;22;20989;-93
2023/05/22 05:20:37;;;;;;;25.80;15.53;;;;;;;40.98;38.16;100990.00;6250255;22;20409;-92
2023/05/22 05:23:03;;;;;;;15.97;12.20;;;;;;;41.14;38.00;101006.59;6249471;22;20996;-92
2023/05/22 05:25:30;;;;;;;16.00;12.83;;;;;;;41.07;37.92;100990.78;6250050;22;20385;-93
2023/05/22 05:27:56;;;;;;;18.90;13.73;;;;;;;40.93;37.95;100979.28;6226018;22;20409;-94
2023/05/22 05:30:22;;;;;;;18.83;13.67;;;;;;;40.92;38.12;100987.78;6250186;22;20785;-93
2023/05/22 05:32:48;;;;;;;19.47;14.10;;;;;;;40.87;37.77;100972.38;6250790;22;20158;-95
2023/05/22 05:35:15;;;;;;;24.43;13.37;;;;;;;41.05;37.98;101009.34;6249862;22;20385;-93
2023/05/22 05:37:42;;;;;;;23.93;15.40;;;;;;;40.94;37.91;100999.13;6249194;22;20425;-95
2023/05/22 05:40:08;;;;;;;22.80;15.80;;;;;;;41.00;38.03;101005.97;6247943;22;20555;-91
2023/05/22 05:42:34;;;;;;;25.17;16.13;;;;;;;41.07;38.02;101025.34;6245997;22;20393;-90
2023/05/22 05:45:00;;;;;;;24.00;14.60;;;;;;;41.04;38.14;101028.72;6246654;22;20474;-88
2023/05/22 05:47:28;;;;;;;27.27;17.50;;;;;;;41.05;38.14;101041.97;6246838;22;20378;-88
2023/05/22 05:49:54;;;;;;;25.07;16.27;;;;;;;41.02;38.02;101039.94;6247592;22;20150;-90
2023/05/22 05:52:20;;;;;;;38.90;23.13;;;;;;;40.91;37.98;101024.25;6248442;22;20555;-93
2023/05/22 05:54:46;;;;;;;26.83;23.40;;;;;;;40.89;38.15;101029.22;6247549;22;20381;-90
2023/05/22 05:57:15;;;;;;;27.43;18.60;;;;;;;40.99;37.99;101042.47;6247521;22;20166;-89
2023/05/22 05:59:41;;;;;;;32.00;20.77;;;;;;;40.98;38.01;101057.22;6249145;22;20385;-87
2023/05/22 06:02:08;;;;;;;48.57;41.53;;;;;;;40.91;38.14;101046.03;6248972;22;20528;-87
2023/05/22 06:04:34;;;;;;;45.77;37.40;;;;;;;40.88;38.15;101041.19;6249102;22;20925;-88
2023/05/22 06:07:00;;;;;;;46.80;38.90;;;;;;;41.01;37.88;101064.75;6247254;22;20417;-90
2023/05/22 06:09:26;;;;;;;143.50;109.60;;;;;;;40.90;38.13;101055.28;6247406;22;20459;-91
2023/05/22 06:11:52;;;;;;;105.00;78.67;;;;;;;40.90;38.01;101058.84;6246823;22;20850;-89
2023/05/22 06:14:18;;;;;;;96.03;69.27;;;;;;;40.81;38.40;101039.75;6246681;22;20398;-89
2023/05/22 06:16:45;;;;;;;41.23;29.03;;;;;;;40.89;38.09;101050.97;6248652;22;20385;-89
2023/05/22 06:19:11;;;;;;;31.27;24.37;;;;;;;40.92;38.34;101072.91;6248166;22;20186;-91
2023/05/22 06:21:37;;;;;;;30.63;21.53;;;;;;;40.89;38.62;101059.13;6246794;22;20381;-91
2023/05/22 06:24:04;;;;;;;25.73;19.37;;;;;;;41.08;38.19;101090.34;6246345;22;20389;-89
2023/05/22 06:26:30;;;;;;;22.10;16.87;;;;;;;41.16;38.08;101091.44;6246053;22;20854;-89
2023/05/22 06:28:56;;;;;;;25.17;17.27;;;;;;;41.10;38.25;101083.75;6273306;22;20378;-90
2023/05/22 06:31:23;;;;;;;29.73;20.73;;;;;;;41.22;38.02;101106.47;6246949;22;20385;-89
2023/05/22 06:33:50;;;;;;;21.10;16.57;;;;;;;41.30;37.99;101124.69;6244816;22;20460;-90
2023/05/22 06:36:17;;;;;;;23.20;15.30;;;;;;;41.33;38.01;101124.09;6274067;22;20409;-89
2023/05/22 06:38:44;;;;;;;23.40;17.10;;;;;;;41.34;38.13;101125.69;6246974;22;20932;-89
2023/05/22 06:41:10;;;;;;;22.37;17.77;;;;;;;41.37;37.85;101129.69;6247848;22;20413;-87
2023/05/22 06:43:36;;;;;;;32.03;21.13;;;;;;;41.37;37.86;101129.69;6248253;22;20381;-89
2023/05/22 06:46:02;;;;;;;29.30;18.37;;;;;;;41.41;37.82;101124.41;6248088;22;20383;-89
2023/05/22 06:48:33;;;;;;;31.10;22.50;;;;;;;41.39;37.99;101115.75;6275391;22;20209;-88
2023/05/22 06:50:59;;;;;;;26.90;21.40;;;;;;;41.39;37.73;101126.66;6249155;22;20385;-88
2023/05/22 06:53:25;;;;;;;30.43;21.33;;;;;;;41.36;38.00;101128.09;6248246;22;20796;-92
2023/05/22 06:55:51;;;;;;;30.27;19.70;;;;;;;41.42;37.87;101128.72;6250336;22;20182;-91
2023/05/22 06:58:17;;;;;;;29.27;21.33;;;;;;;41.41;37.90;101146.19;6249231;22;20449;-91
2023/05/22 07:00:43;;;;;;;27.00;20.23;;;;;;;41.43;37.82;101130.31;6249400;22;20378;-91
2023/05/22 07:03:10;;;;;;;33.20;22.87;;;;;;;41.49;37.64;101140.69;6248577;22;20543;-85
2023/05/22 07:05:36;;;;;;;22.73;19.47;;;;;;;41.51;37.42;101141.19;6249683;22;20733;-88
2023/05/22 07:08:02;;;;;;;27.50;20.00;;;;;;;41.53;37.75;101138.13;6251026;22;20935;-90
2023/05/22 07:10:28;;;;;;;32.67;18.70;;;;;;;41.52;37.92;101150.16;6250526;22;20469;-89
2023/05/22 07:12:54;;;;;;;39.00;20.60;;;;;;;41.52;37.40;101142.00;6250515;22;20408;-90
2023/05/22 07:15:20;;;;;;;30.40;21.03;;;;;;;41.49;37.59;101137.97;6251118;22;20409;-90
2023/05/22 07:17:46;;;;;;;28.17;18.83;;;;;;;41.49;37.78;101137.19;6251001;22;20241;-91
2023/05/22 07:20:14;;;;;;;27.10;18.40;;;;;;;41.49;38.07;101148.06;6251158;22;20468;-92
2023/05/22 07:22:40;;;;;;;22.93;19.40;;;;;;;41.39;37.85;101137.53;6250859;22;20463;-91
2023/05/22 07:25:07;;;;;;;28.60;19.40;;;;;;;41.41;38.17;101146.19;6251246;22;20410;-92
2023/05/22 07:27:33;;;;;;;25.63;19.50;;;;;;;41.54;38.00;101161.50;6250948;22;20417;-91
2023/05/22 07:29:59;;;;;;;22.40;20.00;;;;;;;41.55;38.01;101161.19;6250728;22;20406;-90
2023/05/22 07:32:25;;;;;;;26.60;18.73;;;;;;;41.54;37.68;101165.03;6250577;22;20388;-90
2023/05/22 07:34:51;;;;;;;28.23;19.20;;;;;;;41.41;38.00;101144.25;6250283;22;20440;-90
2023/05/22 07:37:17;;;;;;;25.43;19.30;;;;;;;41.49;37.80;101159.75;6250478;22;20386;-91
2023/05/22 07:39:45;;;;;;;32.33;18.97;;;;;;;41.55;37.82;101174.00;6251144;22;20402;-89
2023/05/22 07:42:13;;;;;;;23.73;20.10;;;;;;;41.66;37.59;101190.81;6250509;22;20393;-89
2023/05/22 07:44:40;;;;;;;26.00;19.57;;;;;;;41.59;37.86;101181.22;6250625;22;20382;-90
2023/05/22 07:47:06;;;;;;;28.47;17.30;;;;;;;41.50;37.68;101174.19;6225712;22;20409;-90
2023/05/22 07:49:32;;;;;;;21.17;15.87;;;;;;;41.67;37.93;101189.69;6251262;22;20381;-90
2023/05/22 07:51:58;;;;;;;27.20;16.13;;;;;;;41.66;37.52;101188.09;6224076;22;20476;-90
2023/05/22 07:54:28;;;;;;;22.57;15.00;;;;;;;41.70;37.57;101189.84;6250198;22;20388;-92
2023/05/22 07:56:54;;;;;;;25.47;15.67;;;;;;;41.73;37.66;101186.44;6249830;22;20158;-92
2023/05/22 07:59:20;;;;;;;28.73;15.27;;;;;;;41.76;37.26;101196.75;6249310;22;20429;-94
2023/05/22 08:01:46;;;;;;;21.13;15.30;;;;;;;41.64;37.59;101158.47;6249078;22;20523;-92
2023/05/22 08:04:12;;;;;;;21.67;13.30;;;;;;;41.78;37.71;101174.63;6249906;22;20468;-87
2023/05/22 08:06:38;;;;;;;20.63;13.53;;;;;;;41.74;37.39;101184.53;6249407;22;20385;-89
2023/05/22 08:09:05;;;;;;;20.00;17.77;;;;;;;41.78;37.63;101194.50;6250650;22;20441;-90
2023/05/22 08:11:32;;;;;;;19.13;15.40;;;;;;;41.61;37.59;101161.81;6250695;22;20390;-90
2023/05/22 08:13:58;;;;;;;23.90;13.00;;;;;;;41.84;37.63;101192.38;6250463;22;20398;-90
2023/05/22 08:16:24;;;;;;;19.83;14.40;;;;;;;41.75;37.66;101180.72;6249508;22;20460;-91
2023/05/22 08:18:50;;;;;;;18.97;12.70;;;;;;;41.71;37.86;101182.47;6250188;22;20452;-91
2023/05/22 08:21:16;;;;;;;19.17;13.77;;;;;;;41.78;37.48;101183.59;6250872;22;20382;-90
2023/05/22 08:23:42;;;;;;;21.47;14.00;;;;;;;41.85;37.62;101205.69;6251166;22;20389;-90
2023/05/22 08:26:13;;;;;;;23.40;14.27;;;;;;;41.85;37.70;101202.94;6248924;22;20778;-87
2023/05/22 08:28:42;;;;;;;20.00;12.27;;;;;;;41.71;37.68;101190.63;6249180;22;20453;-88
2023/05/22 08:31:12;;;;;;;29.37;12.90;;;;;;;41.95;37.54;101209.19;6248678;22;20377;-79
2023/05/22 08:33:38;;;;;;;18.93;12.87;;;;;;;41.98;37.54;101206.59;6248038;22;20378;-83
2023/05/22 08:36:05;;;;;;;17.20;12.17;;;;;;;41.97;37.46;101190.56;6247374;22;20381;-85
2023/05/22 08:38:31;;;;;;;18.70;9.60;;;;;;;42.01;36.92;101197.78;6247559;22;20425;-85
2023/05/22 08:40:57;;;;;;;14.10;8.17;;;;;;;42.02;36.44;101204.03;6250162;22;20433;-86
2023/05/22 08:43:23;;;;;;;20.00;11.80;;;;;;;42.02;37.04;101202.09;6248905;22;20392;-86
2023/05/22 08:46:02;;;;;;;24.13;13.20;;;;;;;42.10;36.97;101200.44;6249540;22;20414;-85
2023/05/22 08:48:32;;;;;;;16.47;9.67;;;;;;;42.10;37.17;101198.53;6249520;22;20473;-87
2023/05/22 08:51:04;;;;;;;16.73;7.90;;;;;;;42.15;36.72;101203.00;6249431;22;20481;-86
2023/05/22 08:53:36;;;;;;;19.33;8.57;;;;;;;42.17;36.37;101194.53;6249519;22;20433;-86
2023/05/22 08:56:05;;;;;;;21.43;10.40;;;;;;;42.19;36.91;101209.44;6249533;22;20386;-87
2023/05/22 08:58:33;;;;;;;14.17;4.80;;;;;;;42.19;36.10;101206.72;6242589;22;20429;-87
2023/05/22 09:01:00;;;;;;;14.03;5.07;;;;;;;42.19;35.99;101198.53;6247513;22;20406;-88
2023/05/22 09:03:31;;;;;;;8.20;4.00;;;;;;;42.26;35.90;101201.53;6247441;22;20378;-88
2023/05/22 09:05:58;;;;;;;10.07;4.17;;;;;;;42.25;35.59;101201.88;6223065;22;20500;-86
2023/05/22 09:08:25;;;;;;;9.77;6.47;;;;;;;42.28;35.67;101207.47;6247527;22;20808;-86
2023/05/22 09:10:51;;;;;;;14.87;6.10;;;;;;;42.28;35.84;101204.72;6246907;22;20401;-86
2023/05/22 09:13:25;;;;;;;11.57;5.23;;;;;;;42.36;36.00;101211.28;6247457;22;20527;-88
2023/05/22 09:15:51;;;;;;;10.30;6.23;;;;;;;42.40;35.98;101196.66;6249156;22;20377;-86
2023/05/22 09:18:17;;;;;;;10.53;6.07;;;;;;;42.33;36.17;101210.00;6249056;22;20421;-86
2023/05/22 09:20:43;;;;;;;11.50;6.30;;;;;;;42.40;36.06;101204.03;6222889;22;20409;-87
2023/05/22 09:23:16;;;;;;;15.80;5.73;;;;;;;42.39;35.63;101213.34;6249290;22;20742;-90
2023/05/22 09:25:43;;;;;;;19.63;6.30;;;;;;;42.42;35.98;101200.97;6249384;22;20385;-88
2023/05/22 09:28:12;;;;;;;12.37;4.80;;;;;;;42.31;36.09;101206.81;6249317;22;20472;-87
2023/05/22 09:30:39;;;;;;;15.33;5.60;;;;;;;42.42;35.86;101211.88;6246389;22;20388;-85
2023/05/22 09:33:08;;;;;;;11.80;4.80;;;;;;;42.39;36.19;101196.97;6246735;22;20408;-88
2023/05/22 09:35:38;;;;;;;13.13;6.90;;;;;;;42.43;36.05;101197.94;6246681;22;20421;-87
2023/05/22 09:38:05;;;;;;;14.17;5.33;;;;;;;42.52;36.09;101206.03;6246754;22;20483;-87
2023/05/22 09:40:33;;;;;;;10.63;4.60;;;;;;;42.48;35.56;101194.19;6247125;22;20378;-87
2023/05/22 09:43:01;;;;;;;9.23;4.53;;;;;;;42.53;36.36;101196.72;6246525;22;20439;-87
2023/05/22 09:45:27;;;;;;;11.20;5.50;;;;;;;42.53;35.98;101199.47;6248582;22;20481;-87
2023/05/22 09:47:53;;;;;;;13.80;6.17;;;;;;;42.63;35.81;101205.38;6248369;22;20405;-87
2023/05/22 09:50:19;;;;;;;12.77;6.77;;;;;;;42.65;35.88;101207.75;6248736;22;20402;-87
2023/05/22 09:52:46;;;;;;;11.30;5.20;;;;;;;42.62;35.66;101203.78;6248331;22;20524;-88
2023/05/22 09:55:13;;;;;;;13.50;5.20;;;;;;;42.63;35.85;101204.56;6248671;22;20382;-88
2023/05/22 09:57:43;;;;;;;12.87;7.27;;;;;;;42.62;36.20;101209.22;6248504;22;20445;-88
2023/05/22 10:00:18;;;;;;;17.67;5.93;;;;;;;42.63;35.61;101210.03;6276669;22;20773;-89
2023/05/22 10:02:46;;;;;;;10.17;4.73;;;;;;;42.71;35.82;101208.34;6248813;22;20904;-88
2023/05/22 10:05:31;;;;;;;18.93;7.90;;;;;;;42.67;36.11;101191.88;6248492;22;20385;-85
2023/05/22 10:08:13;;;;;;;9.87;6.00;;;;;;;42.75;35.59;101201.13;6248299;22;20412;-88
2023/05/22 10:10:41;;;;;;;11.93;5.70;;;;;;;42.82;35.80;101196.72;6248297;22;20441;-87
2023/05/22 10:13:07;;;;;;;13.13;4.40;;;;;;;42.78;35.52;101190.31;6275235;22;20401;-87
2023/05/22 10:15:37;;;;;;;7.80;4.70;;;;;;;42.83;35.44;101192.84;6248406;22;20388;-86
2023/05/22 10:18:04;;;;;;;10.87;4.90;;;;;;;42.90;35.30;101184.13;6248297;22;20462;-85
2023/05/22 10:20:30;;;;;;;16.43;5.20;;;;;;;42.86;35.40;101177.78;6248376;22;20389;-88
2023/05/22 10:22:56;;;;;;;10.77;5.20;;;;;;;43.01;35.21;101192.75;6247421;22;20461;-87
2023/05/22 10:25:22;;;;;;;15.43;6.33;;;;;;;42.98;35.33;101172.41;6248384;22;20416;-88
2023/05/22 10:27:52;;;;;;;13.83;4.67;;;;;;;42.95;35.07;101180.41;6247681;22;20377;-84
2023/05/22 10:30:39;;;;;;;10.90;4.40;;;;;;;42.95;35.15;101174.94;6248836;22;20385;-87
2023/05/22 11:09:15;;;;;;;14.77;5.00;;;;;;;41.97;37.03;101109.63;5174151;27;20588;-83
2023/05/22 11:11:41;;;;;;;12.60;5.13;;;;;;;42.19;36.53;101105.06;5150168;27;20521;-83
2023/05/22 11:14:07;;;;;;;10.63;5.27;;;;;;;42.42;36.00;101109.06;5133402;27;20518;-82
2023/05/22 11:16:33;;;;;;;13.20;5.53;;;;;;;42.54;35.62;101098.22;5132439;27;20417;-81
2023/05/22 11:19:07;;;;;;;16.37;6.43;;;;;;;42.66;35.38;101105.69;5137518;27;20234;-86
2023/05/22 11:22:02;;;;;;;11.43;3.50;;;;;;;42.76;34.88;101093.56;5149588;27;20421;-85
2023/05/22 11:24:37;;;;;;;8.50;3.77;;;;;;;42.88;34.79;101099.09;5138608;27;20457;-87
2023/05/22 11:27:15;;;;;;;15.60;4.70;;;;;;;42.91;34.95;101091.03;5150510;27;20464;-86
2023/05/22 11:29:43;;;;;;;9.93;5.30;;;;;;;43.03;34.91;101095.78;5096429;28;20427;-83
2023/05/22 11:32:28;;;;;;;10.43;5.63;;;;;;;43.06;35.07;101103.28;5127315;27;20449;-80
2023/05/22 11:34:57;;;;;;;13.27;5.10;;;;;;;43.14;35.67;101101.59;5104205;28;20426;-83
2023/05/22 11:37:23;;;;;;;9.10;3.53;;;;;;;43.12;35.28;101106.59;5132370;27;20499;-82
2023/05/22 11:39:56;;;;;;;16.73;4.27;;;;;;;43.12;35.35;101112.84;5133613;27;20417;-81
2023/05/22 11:42:23;;;;;;;9.43;3.90;;;;;;;43.15;35.44;101101.25;5133919;27;20506;-81
2023/05/22 11:44:50;;;;;;;12.30;3.83;;;;;;;43.16;35.50;101105.59;5132948;27;20462;-83
2023/05/22 11:47:16;;;;;;;11.63;4.43;;;;;;;43.18;35.90;101105.25;5132759;27;20449;-80
2023/05/22 11:49:43;;;;;;;11.13;5.30;;;;;;;43.12;35.31;101103.84;5133021;27;20467;-81
2023/05/22 11:52:09;;;;;;;13.50;4.07;;;;;;;43.11;35.27;101105.78;5132895;27;20452;-81